Time;durP1;ratioP1;P1;durP2;ratioP2;P2;SDS_P1;SDS_P2;PMS_P1;PMS_P2;Temp;Humidity;BMP_temperature;BMP_pressure;BME280_temperature;BME280_humidity;BME280_pressure;Samples;Min_cycle;Max_cycle;Signal;HPM_P1;HPM_P2
2022/09/11 00:00:49;;;;;;;5.20;4.05;;;15.30;81.20;;;;;;4968840;28;20031;-52
2022/09/11 00:03:16;;;;;;;4.82;4.15;;;15.40;81.30;;;;;;4979395;28;20026;-51
2022/09/11 00:05:43;;;;;;;4.97;4.15;;;15.40;81.40;;;;;;4981245;28;20121;-52
2022/09/11 00:08:11;;;;;;;6.53;4.40;;;15.40;81.40;;;;;;4974288;28;20038;-52
2022/09/11 00:10:41;;;;;;;4.38;3.67;;;15.40;81.40;;;;;;4984459;28;20031;-49
2022/09/11 00:13:13;;;;;;;4.22;3.70;;;15.50;81.40;;;;;;4975066;28;20031;-51
2022/09/11 00:15:39;;;;;;;;;;;15.50;81.40;;;;;;4974846;28;20358;-51
2022/09/11 00:18:06;;;;;;;5.30;3.88;;;15.50;81.40;;;;;;4973507;28;20323;-52
2022/09/11 00:20:33;;;;;;;5.90;4.05;;;15.50;81.20;;;;;;4974846;28;20067;-50
2022/09/11 00:23:03;;;;;;;4.85;3.95;;;15.50;81.40;;;;;;4973006;28;20030;-50
2022/09/11 00:25:32;;;;;;;5.13;3.93;;;15.40;81.60;;;;;;4977173;28;20033;-52
2022/09/11 00:27:58;;;;;;;4.00;3.50;;;15.40;81.70;;;;;;4975896;28;20069;-53
2022/09/11 00:30:24;;;;;;;5.65;3.97;;;15.40;81.90;;;;;;4985231;28;20116;-51
2022/09/11 00:32:49;;;;;;;5.07;4.03;;;15.40;81.90;;;;;;4981062;28;20088;-50
2022/09/11 00:35:15;;;;;;;5.00;3.88;;;15.40;82.00;;;;;;4990434;28;20042;-49
2022/09/11 00:37:41;;;;;;;4.57;4.00;;;15.40;82.20;;;;;;4979429;28;20100;-51
2022/09/11 00:40:07;;;;;;;4.70;3.75;;;15.40;82.40;;;;;;4986594;28;20077;-51
2022/09/11 00:42:32;;;;;;;5.10;4.13;;;15.40;82.40;;;;;;4976083;28;20035;-50
2022/09/11 00:45:01;;;;;;;4.55;3.75;;;15.40;82.50;;;;;;4975922;28;20081;-50
2022/09/11 00:47:29;;;;;;;4.93;3.90;;;15.30;82.40;;;;;;4964808;28;20038;-51
2022/09/11 00:50:02;;;;;;;6.32;4.05;;;15.30;82.50;;;;;;4986055;28;20122;-50
2022/09/11 00:52:32;;;;;;;4.82;3.40;;;15.30;82.60;;;;;;4978491;28;20031;-51
2022/09/11 00:55:06;;;;;;;4.10;3.70;;;15.30;82.60;;;;;;4977993;28;20042;-52
2022/09/11 00:57:38;;;;;;;6.85;4.20;;;15.40;82.60;;;;;;4973150;28;20026;-52
2022/09/11 01:00:06;;;;;;;4.82;4.10;;;15.30;82.50;;;;;;4977714;28;20530;-48
2022/09/11 01:02:34;;;;;;;5.15;3.97;;;15.40;82.50;;;;;;4979661;28;20026;-49
2022/09/11 01:05:02;;;;;;;5.50;4.47;;;15.30;82.40;;;;;;4977979;28;20042;-49
2022/09/11 01:07:29;;;;;;;5.13;3.75;;;15.30;82.60;;;;;;4976972;28;20463;-50
2022/09/11 01:09:55;;;;;;;5.50;4.10;;;15.30;82.60;;;;;;4986963;28;20042;-49
2022/09/11 01:13:03;;;;;;;5.65;4.38;;;15.30;82.80;;;;;;4978467;28;20027;-49
2022/09/11 01:15:34;;;;;;;4.38;3.50;;;15.30;82.90;;;;;;4894712;29;20041;-51
2022/09/11 01:18:13;;;;;;;;;;;15.30;82.60;;;;;;4894468;29;20032;-52
2022/09/11 01:20:54;;;;;;;3.92;3.50;;;15.30;82.60;;;;;;4941274;28;20417;-49
2022/09/11 01:23:19;;;;;;;4.35;3.50;;;15.40;82.60;;;;;;4975656;28;20554;-50
2022/09/11 01:26:18;;;;;;;4.03;3.50;;;15.40;82.60;;;;;;4974084;28;20041;-50
2022/09/11 01:28:50;;;;;;;4.97;4.00;;;15.30;82.60;;;;;;4949261;28;20045;-51
2022/09/11 01:31:22;;;;;;;4.35;3.72;;;15.40;82.60;;;;;;4972953;28;20113;-51
2022/09/11 01:33:58;;;;;;;4.78;3.90;;;15.40;83.20;;;;;;4973016;28;20109;-49
2022/09/11 01:36:34;;;;;;;5.45;3.97;;;15.40;82.40;;;;;;4977407;28;20031;-51
2022/09/11 01:39:04;;;;;;;4.85;3.83;;;15.40;82.60;;;;;;4974389;28;20039;-50
2022/09/11 01:41:35;;;;;;;4.38;3.75;;;15.40;82.70;;;;;;4971701;28;20031;-49
2022/09/11 01:44:09;;;;;;;4.72;3.80;;;15.40;82.70;;;;;;4972469;28;20450;-48
2022/09/11 01:46:41;;;;;;;4.00;3.60;;;15.40;82.70;;;;;;4972690;28;21219;-51
2022/09/11 01:49:18;;;;;;;5.53;4.20;;;15.50;82.80;;;;;;4981394;28;20041;-49
2022/09/11 01:51:48;;;;;;;5.15;3.70;;;15.50;82.80;;;;;;4973997;28;20038;-50
2022/09/11 01:54:18;;;;;;;5.33;3.83;;;15.50;82.70;;;;;;4980309;28;20031;-49
2022/09/11 01:56:51;;;;;;;5.57;3.60;;;15.60;83.40;;;;;;4981240;28;20371;-49
2022/09/11 01:59:20;;;;;;;5.63;4.07;;;15.60;82.70;;;;;;4972402;28;20123;-52
2022/09/11 02:01:51;;;;;;;4.63;3.70;;;15.60;82.60;;;;;;4981985;28;20389;-51
2022/09/11 02:04:26;;;;;;;5.75;4.55;;;15.60;82.40;;;;;;4975310;28;20377;-50
2022/09/11 02:06:58;;;;;;;4.82;4.00;;;15.60;82.20;;;;;;4978108;28;20038;-49
2022/09/11 02:09:30;;;;;;;5.40;4.50;;;15.60;82.10;;;;;;4990393;28;20038;-51
2022/09/11 02:11:58;;;;;;;5.25;4.30;;;15.60;82.10;;;;;;4977483;28;20066;-50
2022/09/11 02:14:38;;;;;;;5.03;3.97;;;15.60;82.10;;;;;;4980604;28;20081;-51
2022/09/11 02:17:25;;;;;;;5.10;4.10;;;15.50;82.10;;;;;;4982619;28;20030;-49
2022/09/11 02:19:53;;;;;;;4.40;3.95;;;15.60;82.30;;;;;;4995452;28;20072;-51
2022/09/11 02:22:19;;;;;;;4.78;3.88;;;15.50;82.40;;;;;;4981190;28;20086;-49
2022/09/11 02:24:45;;;;;;;4.68;3.83;;;15.50;82.50;;;;;;4976041;28;20070;-51
2022/09/11 02:27:15;;;;;;;4.43;4.03;;;15.50;82.40;;;;;;4975681;28;20357;-49
2022/09/11 02:29:41;;;;;;;4.93;3.80;;;15.60;82.30;;;;;;4982059;28;20030;-51
2022/09/11 02:32:10;;;;;;;4.78;3.67;;;15.60;82.40;;;;;;4978912;28;20404;-50
2022/09/11 02:34:37;;;;;;;5.05;3.97;;;15.60;82.40;;;;;;4986553;28;20486;-52
2022/09/11 02:37:03;;;;;;;4.95;3.78;;;15.60;82.30;;;;;;4985160;28;20105;-49
2022/09/11 02:39:55;;;;;;;5.25;4.47;;;15.60;82.20;;;;;;4988092;28;20165;-50
2022/09/11 02:43:05;;;;;;;5.00;3.95;;;15.70;81.90;;;;;;4975703;28;20118;-49
2022/09/11 02:45:55;;;;;;;5.53;4.10;;;15.60;81.90;;;;;;4933648;28;20046;-50
2022/09/11 02:48:39;;;;;;;5.43;4.35;;;15.60;82.10;;;;;;4984572;28;20122;-50
2022/09/11 02:51:14;;;;;;;4.68;3.75;;;15.50;82.20;;;;;;4973715;28;20042;-50
2022/09/11 02:53:42;;;;;;;4.85;3.95;;;15.50;82.30;;;;;;4977564;28;20031;-49
2022/09/11 02:56:28;;;;;;;5.88;4.10;;;15.50;82.40;;;;;;4984867;28;20733;-48
2022/09/11 02:59:05;;;;;;;4.95;4.13;;;15.50;82.30;;;;;;4976111;28;20042;-52
2022/09/11 03:01:52;;;;;;;4.90;3.95;;;15.60;82.30;;;;;;4986586;28;20034;-51
2022/09/11 03:04:19;;;;;;;6.57;4.32;;;15.50;82.20;;;;;;4982169;28;20069;-53
2022/09/11 03:06:47;;;;;;;4.78;4.00;;;15.50;82.20;;;;;;4974772;28;20502;-52
2022/09/11 03:09:13;;;;;;;4.40;4.00;;;15.50;82.40;;;;;;4982435;28;20026;-50
2022/09/11 03:11:39;;;;;;;5.53;4.10;;;15.50;82.50;;;;;;4974785;28;20038;-51
2022/09/11 03:14:04;;;;;;;6.25;4.20;;;15.40;82.80;;;;;;4974406;28;20034;-52
2022/09/11 03:16:30;;;;;;;5.28;4.25;;;15.40;82.80;;;;;;4974968;28;20050;-51
2022/09/11 03:18:55;;;;;;;5.72;4.10;;;15.40;82.90;;;;;;4983284;28;20166;-53
2022/09/11 03:21:21;;;;;;;4.55;3.97;;;15.40;82.80;;;;;;4975187;28;20054;-50
2022/09/11 03:23:47;;;;;;;6.75;4.38;;;15.50;82.80;;;;;;4973599;28;20027;-53
2022/09/11 03:26:12;;;;;;;6.63;5.28;;;15.50;82.70;;;;;;4974272;28;20498;-51
2022/09/11 03:28:38;;;;;;;6.82;4.80;;;15.50;82.50;;;;;;4982100;28;20027;-52
2022/09/11 03:31:05;;;;;;;5.05;4.20;;;15.40;82.40;;;;;;4977842;28;20038;-49
2022/09/11 03:33:30;;;;;;;6.20;4.80;;;15.40;82.60;;;;;;4978864;28;20030;-49
2022/09/11 03:35:56;;;;;;;5.47;4.40;;;15.30;82.90;;;;;;4980903;28;20538;-50
2022/09/11 03:38:22;;;;;;;6.90;4.25;;;15.30;83.20;;;;;;4980919;28;20527;-53
2022/09/11 03:40:47;;;;;;;7.05;4.68;;;15.20;83.30;;;;;;4974750;28;20031;-49
2022/09/11 03:43:15;;;;;;;5.38;4.22;;;15.20;83.30;;;;;;4974730;28;20054;-48
2022/09/11 03:45:41;;;;;;;5.75;4.47;;;15.20;83.50;;;;;;4981717;28;20053;-52
2022/09/11 03:48:07;;;;;;;5.22;4.32;;;15.20;83.70;;;;;;4976861;28;20500;-50
2022/09/11 03:50:33;;;;;;;5.40;4.25;;;15.20;83.60;;;;;;4973945;28;20074;-50
2022/09/11 03:52:58;;;;;;;5.57;4.25;;;15.20;83.50;;;;;;4972421;28;20117;-50
2022/09/11 03:55:24;;;;;;;5.30;4.55;;;15.20;83.50;;;;;;4982065;28;20042;-50
2022/09/11 03:57:50;;;;;;;5.05;4.30;;;15.20;83.50;;;;;;4976205;28;20549;-51
2022/09/11 04:00:16;;;;;;;5.30;4.30;;;15.10;83.50;;;;;;4975263;28;20042;-52
2022/09/11 04:02:41;;;;;;;6.47;4.43;;;15.10;83.80;;;;;;4973674;28;20074;-50
2022/09/11 04:05:08;;;;;;;5.15;4.45;;;15.10;83.60;;;;;;4976580;28;20035;-50
2022/09/11 04:07:33;;;;;;;5.25;4.13;;;15.00;83.50;;;;;;4979099;28;20046;-48
2022/09/11 04:10:00;;;;;;;7.13;4.43;;;15.00;83.80;;;;;;4974326;28;20389;-52
2022/09/11 04:12:25;;;;;;;5.90;4.40;;;14.90;83.90;;;;;;4974050;28;20042;-48
2022/09/11 04:14:51;;;;;;;5.72;4.30;;;14.90;84.00;;;;;;4974206;28;20031;-52
2022/09/11 04:17:17;;;;;;;5.07;4.00;;;14.80;84.40;;;;;;4973768;28;20031;-51
2022/09/11 04:19:43;;;;;;;4.68;3.90;;;14.80;84.50;;;;;;4975163;28;20165;-49
2022/09/11 04:22:09;;;;;;;4.35;3.95;;;14.70;84.70;;;;;;4974326;28;20552;-51
2022/09/11 04:24:35;;;;;;;5.40;4.30;;;14.70;84.90;;;;;;4973344;28;20499;-48
2022/09/11 04:27:01;;;;;;;5.00;3.97;;;14.70;84.90;;;;;;4973287;28;20030;-50
2022/09/11 04:29:27;;;;;;;5.03;3.78;;;14.60;84.80;;;;;;4974771;28;20026;-49
2022/09/11 04:31:53;;;;;;;4.45;3.80;;;14.60;84.90;;;;;;4974163;28;20054;-49
2022/09/11 04:34:19;;;;;;;4.45;3.75;;;14.60;85.10;;;;;;4974516;28;20405;-52
2022/09/11 04:36:44;;;;;;;4.13;3.60;;;14.50;85.20;;;;;;4973704;28;20085;-50
2022/09/11 04:39:10;;;;;;;5.90;3.92;;;14.50;85.30;;;;;;4974644;28;20038;-50
2022/09/11 04:41:36;;;;;;;5.28;4.03;;;14.50;85.60;;;;;;4983433;28;20039;-52
2022/09/11 04:44:02;;;;;;;5.35;4.35;;;14.40;85.70;;;;;;4975305;28;20519;-52
2022/09/11 04:46:28;;;;;;;4.57;4.10;;;14.40;85.80;;;;;;4973230;28;20034;-53
2022/09/11 04:48:58;;;;;;;5.10;4.00;;;14.30;85.90;;;;;;4974296;28;20117;-52
2022/09/11 04:51:29;;;;;;;5.65;4.35;;;14.30;86.10;;;;;;4972179;28;20476;-50
2022/09/11 04:53:56;;;;;;;4.57;3.60;;;14.20;86.30;;;;;;4974671;28;20062;-53
2022/09/11 04:56:25;;;;;;;4.28;3.63;;;14.20;86.60;;;;;;4983057;28;20109;-50
2022/09/11 04:58:59;;;;;;;4.28;3.53;;;14.20;87.00;;;;;;4963718;28;20026;-51
2022/09/11 05:01:27;;;;;;;5.55;3.97;;;14.10;87.00;;;;;;4972945;28;20058;-53
2022/09/11 05:03:55;;;;;;;5.53;3.50;;;14.10;87.90;;;;;;4978046;28;20031;-51
2022/09/11 05:06:21;;;;;;;3.50;3.20;;;14.10;87.70;;;;;;4973466;28;20033;-53
2022/09/11 05:08:48;;;;;;;4.25;3.10;;;14.10;87.70;;;;;;4972537;28;20062;-49
2022/09/11 05:11:17;;;;;;;3.33;3.03;;;14.10;87.70;;;;;;4976633;28;20479;-53
2022/09/11 05:13:43;;;;;;;4.72;3.55;;;14.20;87.70;;;;;;4975695;28;20037;-49
2022/09/11 05:16:14;;;;;;;4.68;3.45;;;14.20;87.60;;;;;;4972468;28;20034;-52
2022/09/11 05:18:42;;;;;;;3.35;3.05;;;14.30;87.30;;;;;;4972868;28;20045;-54
2022/09/11 05:21:13;;;;;;;3.83;3.13;;;14.30;87.10;;;;;;4972914;28;20058;-53
2022/09/11 05:23:39;;;;;;;3.58;3.20;;;14.30;87.00;;;;;;4983320;28;20042;-49
2022/09/11 05:26:07;;;;;;;4.47;3.50;;;14.30;86.90;;;;;;4974080;28;20045;-49
2022/09/11 05:28:33;;;;;;;4.78;3.28;;;14.30;86.70;;;;;;4974696;28;20396;-52
2022/09/11 05:30:59;;;;;;;4.30;3.50;;;14.30;86.80;;;;;;4973371;28;20034;-53
2022/09/11 05:33:26;;;;;;;3.60;2.95;;;14.30;86.70;;;;;;4975380;28;20038;-53
2022/09/11 05:35:54;;;;;;;4.22;3.13;;;14.30;87.00;;;;;;4972637;28;20117;-51
2022/09/11 05:38:21;;;;;;;4.53;2.95;;;14.30;86.90;;;;;;4974073;28;20544;-52
2022/09/11 05:40:49;;;;;;;3.00;2.65;;;14.30;86.70;;;;;;4978312;28;20049;-52
2022/09/11 05:43:16;;;;;;;3.33;3.03;;;14.30;86.50;;;;;;4973281;28;20121;-53
2022/09/11 05:45:43;;;;;;;4.13;2.90;;;14.30;86.30;;;;;;4978599;28;20039;-53
2022/09/11 05:48:09;;;;;;;3.28;2.95;;;14.30;86.30;;;;;;4975494;28;20039;-52
2022/09/11 05:50:35;;;;;;;4.05;3.03;;;14.20;86.30;;;;;;4984368;28;20038;-53
2022/09/11 05:53:01;;;;;;;3.47;3.00;;;14.20;86.30;;;;;;4977260;28;20041;-50
2022/09/11 05:55:27;;;;;;;3.53;2.80;;;14.30;86.10;;;;;;4986081;28;20030;-51
2022/09/11 05:57:53;;;;;;;3.53;2.83;;;14.20;86.00;;;;;;4978615;28;20254;-50
2022/09/11 06:00:19;;;;;;;3.28;2.80;;;14.20;86.00;;;;;;4984987;28;20357;-49
2022/09/11 06:02:47;;;;;;;3.70;3.13;;;14.20;86.20;;;;;;4980916;28;20035;-52
2022/09/11 06:05:13;;;;;;;4.85;3.10;;;14.20;86.10;;;;;;4991392;28;20031;-49
2022/09/11 06:07:39;;;;;;;3.28;2.95;;;14.20;86.20;;;;;;4979112;28;20035;-49
2022/09/11 06:10:06;;;;;;;5.55;3.40;;;14.20;86.10;;;;;;4981461;28;20031;-48
2022/09/11 06:12:31;;;;;;;3.50;2.88;;;14.20;86.80;;;;;;4978256;28;20507;-54
2022/09/11 06:14:57;;;;;;;4.32;3.05;;;14.10;86.30;;;;;;4992600;28;20038;-50
2022/09/11 06:17:23;;;;;;;3.28;2.92;;;14.10;86.20;;;;;;4981719;28;20041;-53
2022/09/11 06:19:48;;;;;;;5.78;3.35;;;14.00;86.20;;;;;;4982553;28;20042;-50
2022/09/11 06:22:14;;;;;;;3.25;2.85;;;14.00;86.40;;;;;;4972587;28;20469;-49
2022/09/11 06:24:40;;;;;;;3.33;2.75;;;14.00;86.60;;;;;;4969490;28;20038;-49
2022/09/11 06:27:05;;;;;;;3.50;3.00;;;13.90;86.70;;;;;;4984285;28;20038;-50
2022/09/11 06:29:31;;;;;;;2.83;2.50;;;13.90;86.90;;;;;;4994898;28;20022;-53
2022/09/11 06:31:58;;;;;;;3.20;2.72;;;13.90;87.20;;;;;;4982626;28;20034;-54
2022/09/11 06:34:25;;;;;;;2.50;2.22;;;13.90;87.20;;;;;;4987454;28;20057;-49
2022/09/11 06:36:51;;;;;;;3.10;2.78;;;13.90;87.40;;;;;;4980118;28;20128;-51
2022/09/11 06:39:19;;;;;;;3.42;2.67;;;13.90;87.60;;;;;;4978998;28;20027;-50
2022/09/11 06:41:45;;;;;;;5.75;2.92;;;13.90;87.60;;;;;;4981826;28;20030;-52
2022/09/11 06:44:11;;;;;;;4.63;3.03;;;14.00;87.70;;;;;;4979078;28;20034;-51
2022/09/11 06:46:39;;;;;;;3.60;2.75;;;13.90;87.50;;;;;;4980979;28;20038;-52
2022/09/11 06:49:05;;;;;;;2.95;2.65;;;14.00;87.60;;;;;;4975292;28;20177;-53
2022/09/11 06:51:31;;;;;;;2.60;2.40;;;13.90;87.50;;;;;;4975213;28;20041;-52
2022/09/11 06:54:01;;;;;;;3.88;2.70;;;14.00;87.70;;;;;;4975256;28;20039;-51
2022/09/11 06:56:28;;;;;;;3.00;2.70;;;13.90;87.50;;;;;;4983758;28;20074;-51
2022/09/11 06:58:54;;;;;;;2.92;2.58;;;13.90;87.70;;;;;;4975648;28;20451;-51
2022/09/11 07:01:20;;;;;;;2.88;2.65;;;13.90;87.70;;;;;;4975288;28;20110;-52
2022/09/11 07:03:48;;;;;;;4.00;2.72;;;13.90;87.90;;;;;;4981384;28;20063;-53
2022/09/11 07:06:19;;;;;;;3.63;2.78;;;13.90;88.10;;;;;;4979698;28;20053;-51
2022/09/11 07:09:02;;;;;;;3.15;2.70;;;13.90;88.80;;;;;;4974516;28;20038;-52
2022/09/11 07:11:32;;;;;;;2.60;2.40;;;13.90;87.90;;;;;;4974835;28;20484;-52
2022/09/11 07:13:59;;;;;;;2.78;2.53;;;13.90;87.80;;;;;;4975404;28;20035;-51
2022/09/11 07:16:25;;;;;;;2.33;2.13;;;13.90;87.80;;;;;;4985433;28;20366;-49
2022/09/11 07:18:50;;;;;;;3.08;2.70;;;13.90;88.00;;;;;;4974924;28;20034;-50
2022/09/11 07:21:22;;;;;;;2.72;2.53;;;13.90;88.20;;;;;;4975034;28;20138;-52
2022/09/11 07:23:48;;;;;;;;;;;13.90;88.20;;;;;;4975400;28;20487;-51
2022/09/11 07:26:15;;;;;;;2.92;2.50;;;13.80;88.40;;;;;;4974926;28;19906;-51
2022/09/11 07:28:40;;;;;;;3.38;2.75;;;13.80;88.30;;;;;;4974612;28;20040;-50
2022/09/11 07:31:31;;;;;;;2.80;2.50;;;13.80;88.60;;;;;;4979028;28;20141;-51
2022/09/11 07:33:57;;;;;;;3.38;2.72;;;13.70;88.90;;;;;;4974867;28;20030;-53
2022/09/11 07:36:26;;;;;;;3.35;2.80;;;13.70;89.30;;;;;;4973087;28;20768;-51
2022/09/11 07:38:53;;;;;;;3.10;2.55;;;13.70;89.60;;;;;;4973557;28;20030;-52
2022/09/11 07:41:20;;;;;;;3.35;2.70;;;13.70;90.00;;;;;;4973511;28;20031;-50
2022/09/11 07:43:50;;;;;;;2.83;2.45;;;13.60;90.00;;;;;;4974617;28;20047;-51
2022/09/11 07:46:16;;;;;;;2.72;2.40;;;13.60;90.10;;;;;;4974330;28;20050;-53
2022/09/11 07:48:42;;;;;;;2.92;2.35;;;13.60;90.10;;;;;;4974801;28;20126;-52
2022/09/11 07:51:10;;;;;;;2.78;2.50;;;13.60;90.20;;;;;;4973451;28;20177;-51
2022/09/11 07:53:38;;;;;;;3.67;2.83;;;13.60;90.20;;;;;;4975030;28;20042;-50
2022/09/11 07:56:09;;;;;;;3.13;2.83;;;13.60;90.20;;;;;;4986086;28;20030;-50
2022/09/11 07:58:38;;;;;;;4.00;2.60;;;13.60;90.20;;;;;;4975122;28;20030;-50
2022/09/11 08:01:06;;;;;;;3.40;2.50;;;13.50;90.20;;;;;;4972682;28;20043;-48
2022/09/11 08:03:33;;;;;;;3.20;2.75;;;13.50;90.30;;;;;;4974540;28;20114;-52
2022/09/11 08:06:04;;;;;;;3.47;2.55;;;13.50;90.50;;;;;;4970484;28;20026;-50
2022/09/11 08:08:31;;;;;;;2.85;2.47;;;13.50;90.70;;;;;;4974793;28;20361;-48
2022/09/11 08:11:01;;;;;;;3.03;2.50;;;13.50;90.80;;;;;;4974524;28;20113;-49
2022/09/11 08:13:28;;;;;;;2.80;2.42;;;13.50;90.80;;;;;;4976720;28;20031;-51
2022/09/11 08:15:53;;;;;;;3.13;2.53;;;13.50;90.80;;;;;;4974998;28;20038;-48
2022/09/11 08:18:19;;;;;;;2.63;2.42;;;13.50;90.90;;;;;;4972985;28;20045;-48
2022/09/11 08:20:44;;;;;;;2.67;2.47;;;13.50;90.90;;;;;;4974848;28;20084;-48
2022/09/11 08:23:11;;;;;;;2.97;2.45;;;13.50;91.10;;;;;;4972985;28;20101;-48
2022/09/11 08:25:37;;;;;;;3.20;2.65;;;13.50;91.10;;;;;;4972286;28;20200;-53
2022/09/11 08:28:04;;;;;;;3.00;2.50;;;13.40;91.20;;;;;;4975846;28;20034;-52
2022/09/11 08:30:31;;;;;;;2.65;2.40;;;13.50;91.20;;;;;;4977151;28;20039;-51
2022/09/11 08:32:57;;;;;;;3.25;2.42;;;13.50;91.40;;;;;;4972197;28;20389;-49
2022/09/11 08:35:24;;;;;;;2.50;2.30;;;13.50;91.40;;;;;;4977581;28;20027;-51
2022/09/11 08:37:50;;;;;;;3.22;2.40;;;13.60;91.50;;;;;;4974001;28;20168;-50
2022/09/11 08:40:16;;;;;;;2.60;2.40;;;13.60;91.50;;;;;;4975312;28;20488;-49
2022/09/11 08:42:44;;;;;;;4.00;2.70;;;13.70;91.50;;;;;;4978909;28;20027;-51
2022/09/11 08:45:15;;;;;;;3.30;2.65;;;13.70;91.50;;;;;;4974506;28;20043;-48
2022/09/11 08:47:46;;;;;;;2.63;2.42;;;13.80;91.40;;;;;;4975658;28;20045;-49
2022/09/11 08:50:25;;;;;;;2.65;2.35;;;13.80;91.30;;;;;;4982055;28;20049;-52
2022/09/11 08:52:54;;;;;;;3.72;2.33;;;13.90;91.20;;;;;;4970886;28;20046;-49
2022/09/11 08:55:38;;;;;;;5.55;2.40;;;13.90;91.20;;;;;;4979476;28;20026;-50
2022/09/11 08:58:20;;;;;;;2.90;2.30;;;14.00;91.00;;;;;;4982167;28;20027;-48
2022/09/11 09:01:11;;;;;;;2.70;2.28;;;14.00;90.90;;;;;;4969083;28;20256;-47
2022/09/11 09:04:14;;;;;;;2.42;2.22;;;14.00;90.90;;;;;;4976611;28;20031;-47
2022/09/11 09:07:01;;;;;;;4.45;2.47;;;14.00;90.60;;;;;;4972628;28;20420;-47
2022/09/11 09:12:24;;;;;;;3.25;2.40;;;14.10;90.50;;;;;;5325405;22;20087;-55
2022/09/11 09:40:30;;;;;;;2.78;2.47;;;14.10;90.70;;;;;;4969865;28;20066;-91
2022/09/11 09:43:23;;;;;;;2.63;2.42;;;14.10;90.60;;;;;;4970388;28;20042;-89
2022/09/11 09:46:10;;;;;;;2.28;2.08;;;14.10;90.60;;;;;;4953222;28;20046;-89
2022/09/11 09:48:38;;;;;;;3.03;2.55;;;14.20;90.70;;;;;;4950242;28;20027;-91
2022/09/11 09:51:05;;;;;;;2.42;2.22;;;14.20;90.80;;;;;;4954613;28;20023;-89
2022/09/11 09:54:03;;;;;;;2.40;2.20;;;14.20;91.10;;;;;;4963492;28;20089;-93
2022/09/11 09:56:32;;;;;;;3.95;2.33;;;14.30;90.80;;;;;;4907093;28;20174;-90
2022/09/11 09:59:22;;;;;;;3.42;2.45;;;14.30;91.00;;;;;;4952995;28;20019;-90
2022/09/11 10:01:53;;;;;;;5.80;2.55;;;14.30;90.80;;;;;;4958661;28;20026;-89
2022/09/11 10:04:29;;;;;;;2.75;2.30;;;14.40;90.90;;;;;;4959205;28;20034;-92
2022/09/11 10:07:20;;;;;;;2.65;2.20;;;14.40;90.80;;;;;;4964163;28;20018;-89
2022/09/11 10:09:47;;;;;;;;;;;14.40;90.70;;;;;;4968537;28;20107;-93
2022/09/11 10:12:21;;;;;;;3.45;2.20;;;14.40;90.50;;;;;;4954588;28;19945;-90
2022/09/11 10:14:54;;;;;;;4.18;2.58;;;14.40;90.60;;;;;;4971244;28;20033;-91
2022/09/11 10:17:41;;;;;;;2.60;2.33;;;14.40;90.70;;;;;;4962222;28;20027;-89
2022/09/11 10:20:20;;;;;;;2.40;2.20;;;14.40;90.60;;;;;;5100228;23;20079;-90
2022/09/11 10:22:46;;;;;;;2.75;2.50;;;14.40;90.60;;;;;;4960771;28;20035;-91
2022/09/11 10:25:19;;;;;;;2.50;2.30;;;14.40;90.60;;;;;;4964342;28;20477;-90
2022/09/11 10:28:02;;;;;;;2.45;2.20;;;14.30;90.50;;;;;;4963948;28;20035;-89
2022/09/11 10:30:34;;;;;;;2.90;2.17;;;14.40;90.60;;;;;;4970709;28;20248;-91
2022/09/11 10:33:02;;;;;;;3.33;3.00;;;14.30;90.60;;;;;;4971169;28;20020;-90
2022/09/11 10:35:32;;;;;;;3.15;2.50;;;14.20;90.50;;;;;;4970183;28;20107;-90
2022/09/11 10:38:16;;;;;;;2.60;2.40;;;14.20;91.00;;;;;;4970448;28;20075;-89
2022/09/11 10:40:53;;;;;;;2.72;2.53;;;14.20;90.90;;;;;;4973667;28;20060;-89
2022/09/11 10:48:28;;;;;;;2.80;2.50;;;14.20;91.10;;;;;;5439724;23;20114;-88
2022/09/11 10:51:08;;;;;;;3.08;2.78;;;14.20;91.10;;;;;;3537738;23;20240;-83
2022/09/11 10:56:42;;;;;;;3.17;2.88;;;14.20;91.30;;;;;;1945360;23;20436;-86
2022/09/11 10:59:16;;;;;;;3.30;2.83;;;14.20;91.40;;;;;;4987509;23;20039;-86
2022/09/11 11:04:15;;;;;;;4.75;3.00;;;14.20;91.50;;;;;;5284340;23;20037;-87
2022/09/11 11:13:04;;;;;;;2.80;2.50;;;14.20;91.70;;;;;;6093877;23;21184;31
2022/09/11 11:16:19;;;;;;;3.70;3.17;;;14.20;91.80;;;;;;4968424;29;20103;-86
2022/09/11 11:19:23;;;;;;;4.43;2.88;;;14.20;92.00;;;;;;4933119;29;20012;-88
2022/09/11 11:21:56;;;;;;;6.35;3.20;;;14.20;92.20;;;;;;4977509;28;20042;-87
2022/09/11 11:24:31;;;;;;;3.50;2.97;;;14.20;92.20;;;;;;4966464;28;20027;-87
2022/09/11 11:27:09;;;;;;;4.05;2.90;;;14.20;92.20;;;;;;4968652;29;20011;-87
2022/09/11 11:50:04;;;;;;;3.03;2.70;;;14.30;92.80;;;;;;4942960;23;20055;-72
2022/09/11 11:52:55;;;;;;;2.70;2.45;;;14.30;92.80;;;;;;4910446;29;20031;-71
2022/09/11 11:55:50;;;;;;;3.33;2.80;;;14.30;93.00;;;;;;4920024;29;20094;-72
2022/09/11 11:58:37;;;;;;;2.72;2.53;;;14.30;93.20;;;;;;4914060;29;20487;-71
2022/09/11 12:01:10;;;;;;;2.80;2.53;;;14.40;93.40;;;;;;4934602;29;20027;-71
2022/09/11 12:03:43;;;;;;;2.67;2.47;;;14.30;93.50;;;;;;4949352;29;20019;-72
2022/09/11 12:06:10;;;;;;;2.92;2.30;;;14.30;93.60;;;;;;4951747;29;20059;-72
2022/09/11 12:08:42;;;;;;;3.00;2.70;;;14.40;93.80;;;;;;4951545;29;20091;-72
2022/09/11 12:11:11;;;;;;;2.60;2.40;;;14.40;93.80;;;;;;4937036;29;20038;-73
2022/09/11 12:13:43;;;;;;;2.63;2.42;;;14.30;93.70;;;;;;4955688;29;20047;-73
2022/09/11 12:16:27;;;;;;;2.78;2.53;;;14.30;94.00;;;;;;4935883;29;20500;-73
2022/09/11 12:19:04;;;;;;;2.40;2.20;;;14.30;94.10;;;;;;4946597;29;20055;-73
2022/09/11 12:21:30;;;;;;;2.33;2.10;;;14.30;94.20;;;;;;4924124;29;20498;-72
2022/09/11 12:23:56;;;;;;;1.92;1.83;;;14.30;94.30;;;;;;4941943;29;20032;-73
2022/09/11 12:26:23;;;;;;;2.40;1.98;;;14.30;94.30;;;;;;4915694;29;20613;-73
2022/09/11 12:29:10;;;;;;;2.80;2.25;;;14.40;94.40;;;;;;4921143;29;20036;-73
2022/09/11 12:31:48;;;;;;;2.47;2.10;;;14.30;94.20;;;;;;4935843;29;20716;-73
2022/09/11 12:34:18;;;;;;;2.67;2.45;;;14.40;94.30;;;;;;4931620;29;20024;-73
2022/09/11 12:37:13;;;;;;;2.35;2.15;;;14.40;94.30;;;;;;4937831;29;20028;-73
2022/09/11 12:39:55;;;;;;;2.10;1.90;;;14.30;94.20;;;;;;4919735;29;20051;-73
2022/09/11 12:42:24;;;;;;;2.67;2.35;;;14.30;94.40;;;;;;4918645;29;20047;-74
2022/09/11 12:44:49;;;;;;;3.25;2.17;;;14.30;94.90;;;;;;4933961;29;20035;-73
2022/09/11 12:47:22;;;;;;;2.45;2.08;;;14.30;94.60;;;;;;4915448;29;20032;-73
2022/09/11 12:49:53;;;;;;;2.40;2.17;;;14.30;94.60;;;;;;4930522;29;20469;-73
2022/09/11 12:52:26;;;;;;;2.33;2.00;;;14.20;94.60;;;;;;4935875;29;20088;-74
2022/09/11 12:54:53;;;;;;;1.95;1.85;;;14.20;94.70;;;;;;4914572;29;20039;-74
2022/09/11 12:57:29;;;;;;;1.75;1.65;;;14.20;94.60;;;;;;4933746;29;20471;-74
2022/09/11 13:00:09;;;;;;;2.70;2.30;;;14.20;94.60;;;;;;4931948;29;20079;-75
2022/09/11 13:02:42;;;;;;;1.73;1.63;;;14.20;94.70;;;;;;4924962;29;20028;-76
2022/09/11 13:05:33;;;;;;;2.47;2.22;;;14.20;94.60;;;;;;4930718;29;20030;-72
2022/09/11 13:08:03;;;;;;;2.55;2.20;;;14.20;94.40;;;;;;5281093;23;20069;-72
2022/09/11 13:10:37;;;;;;;2.67;2.13;;;14.20;94.30;;;;;;4915961;29;20396;-71
2022/09/11 13:13:35;;;;;;;2.20;2.10;;;14.20;94.20;;;;;;4907645;29;20119;-72
2022/09/11 13:16:17;;;;;;;1.73;1.63;;;14.20;94.30;;;;;;4912554;29;20031;-71
2022/09/11 13:18:43;;;;;;;2.17;2.08;;;14.10;94.50;;;;;;4911837;29;20032;-69
2022/09/11 13:21:09;;;;;;;3.03;2.10;;;14.10;94.40;;;;;;4908605;29;20476;-68
2022/09/11 13:23:35;;;;;;;2.30;2.10;;;14.10;94.50;;;;;;4901293;29;20029;-67
2022/09/11 13:26:03;;;;;;;2.40;2.20;;;14.10;94.50;;;;;;4906671;29;20118;-67
2022/09/11 13:28:30;;;;;;;2.78;2.15;;;14.10;94.50;;;;;;4908876;29;20076;-65
2022/09/11 13:31:02;;;;;;;2.58;2.38;;;14.10;94.50;;;;;;4887088;29;20029;-66
2022/09/11 13:33:29;;;;;;;2.30;2.20;;;14.10;94.40;;;;;;4902197;29;20097;-67
2022/09/11 13:36:05;;;;;;;2.60;2.38;;;14.10;94.70;;;;;;4904171;29;20079;-66
2022/09/11 13:38:36;;;;;;;2.22;2.10;;;14.10;94.60;;;;;;4907681;29;20028;-65
2022/09/11 13:41:07;;;;;;;2.13;2.03;;;14.10;94.60;;;;;;4905920;29;20051;-67
2022/09/11 13:43:47;;;;;;;2.20;2.00;;;14.10;94.50;;;;;;4905889;29;20032;-66
2022/09/11 13:46:15;;;;;;;2.72;2.35;;;14.10;94.30;;;;;;4904915;29;20021;-65
2022/09/11 13:48:47;;;;;;;2.42;2.22;;;14.20;94.20;;;;;;4904880;29;20040;-65
2022/09/11 13:51:30;;;;;;;3.80;2.30;;;14.20;94.10;;;;;;4902064;29;20021;-66
2022/09/11 13:54:11;;;;;;;2.75;2.40;;;14.10;94.00;;;;;;4908801;29;20076;-62
2022/09/11 13:56:44;;;;;;;2.95;2.65;;;14.20;94.10;;;;;;4906669;29;20383;-63
2022/09/11 13:59:37;;;;;;;3.58;2.58;;;14.10;94.00;;;;;;4905666;29;20045;-62
2022/09/11 14:02:14;;;;;;;2.75;2.55;;;14.20;93.80;;;;;;4914674;29;20032;-63
2022/09/11 14:04:41;;;;;;;3.42;2.72;;;14.10;93.80;;;;;;4892754;29;20491;-63
2022/09/11 14:07:22;;;;;;;3.28;2.72;;;14.10;93.80;;;;;;4907731;29;20171;-63
2022/09/11 14:10:07;;;;;;;6.40;3.10;;;14.10;93.70;;;;;;4910353;29;20048;-63
2022/09/11 14:12:44;;;;;;;2.90;2.67;;;14.10;93.70;;;;;;4903455;29;20028;-65
2022/09/11 14:15:29;;;;;;;2.67;2.47;;;14.10;93.80;;;;;;4904948;29;20032;-65